createdAt,value
2018-02-21T00:00:07.747Z,991.81
2018-02-21T00:01:08.069Z,991.82
2018-02-21T00:02:08.390Z,991.88
2018-02-21T00:03:08.718Z,991.88
2018-02-21T00:04:09.034Z,991.87
2018-02-21T00:05:09.346Z,991.85
2018-02-21T00:06:09.693Z,991.90
2018-02-21T00:07:09.975Z,991.91
2018-02-21T00:08:10.296Z,991.91
2018-02-21T00:09:10.616Z,991.96
2018-02-21T00:10:10.724Z,991.94
2018-02-21T00:11:11.045Z,992.00
2018-02-21T00:12:11.366Z,992.00
2018-02-21T00:13:11.688Z,991.99
2018-02-21T00:14:12.006Z,991.96
2018-02-21T00:15:12.326Z,992.04
2018-02-21T00:16:12.652Z,991.99
2018-02-21T00:17:12.982Z,992.04
2018-02-21T00:18:13.094Z,992.02
2018-02-21T00:19:13.413Z,992.01
2018-02-21T00:20:13.734Z,992.02
2018-02-21T00:21:14.055Z,992.05
2018-02-21T00:22:14.386Z,992.05
2018-02-21T00:23:14.706Z,992.05
2018-02-21T00:24:15.017Z,992.03
2018-02-21T00:25:15.332Z,992.02
2018-02-21T00:26:15.646Z,992.05
2018-02-21T00:27:15.967Z,992.08
2018-02-21T00:28:16.289Z,992.03
2018-02-21T00:29:16.608Z,992.03
2018-02-21T00:30:16.929Z,992.00
2018-02-21T00:31:17.250Z,991.98
2018-02-21T00:32:17.573Z,991.99
2018-02-21T00:33:17.894Z,992.03
2018-02-21T00:34:18.234Z,992.00
2018-02-21T00:35:18.343Z,992.01
2018-02-21T00:36:18.663Z,992.00
2018-02-21T00:37:18.982Z,991.97
2018-02-21T00:38:19.324Z,991.99
2018-02-21T00:39:19.624Z,991.97
2018-02-21T00:40:19.939Z,991.96
2018-02-21T00:41:20.289Z,991.94
2018-02-21T00:42:20.568Z,991.96
2018-02-21T00:43:20.885Z,991.97
2018-02-21T00:44:21.206Z,991.98
2018-02-21T00:45:21.525Z,992.00
2018-02-21T00:46:21.845Z,991.99
2018-02-21T00:47:22.166Z,991.99
2018-02-21T00:48:22.487Z,991.99
2018-02-21T00:49:22.809Z,991.97
2018-02-21T00:50:23.130Z,991.98
2018-02-21T00:51:23.451Z,992.02
2018-02-21T00:52:23.778Z,992.01
2018-02-21T00:53:23.887Z,992.05
2018-02-21T00:54:24.210Z,992.08
2018-02-21T00:55:24.522Z,992.10
2018-02-21T00:56:24.846Z,992.09
2018-02-21T00:57:24.955Z,992.10
2018-02-21T00:58:25.276Z,992.11
2018-02-21T00:59:25.603Z,992.09
2018-02-21T01:00:25.922Z,992.11
2018-02-21T01:01:26.236Z,992.07
2018-02-21T01:02:26.562Z,992.12
2018-02-21T01:03:26.879Z,992.12
2018-02-21T01:04:27.195Z,992.10
2018-02-21T01:05:27.520Z,992.10
2018-02-21T01:06:27.628Z,992.10
2018-02-21T01:07:27.951Z,992.09
2018-02-21T01:08:28.270Z,992.07
2018-02-21T01:09:28.593Z,992.09
2018-02-21T01:10:28.921Z,992.12
2018-02-21T01:11:29.038Z,992.16
2018-02-21T01:12:29.145Z,992.21
2018-02-21T01:13:29.466Z,992.20
2018-02-21T01:14:29.784Z,992.23
2018-02-21T01:15:30.105Z,992.28
2018-02-21T01:16:30.431Z,992.28
2018-02-21T01:17:30.749Z,992.32
2018-02-21T01:18:31.064Z,992.33
2018-02-21T01:19:31.383Z,992.35
2018-02-21T01:20:31.693Z,992.37
2018-02-21T01:21:32.012Z,992.40
2018-02-21T01:22:32.333Z,992.42
2018-02-21T01:23:32.444Z,992.44
2018-02-21T01:24:32.762Z,992.43
2018-02-21T01:25:33.082Z,992.46
2018-02-21T01:26:33.403Z,992.44
2018-02-21T01:27:33.726Z,992.46
2018-02-21T01:28:34.044Z,992.52
2018-02-21T01:29:34.365Z,992.47
2018-02-21T01:30:34.685Z,992.48
2018-02-21T01:31:35.018Z,992.52
2018-02-21T01:32:35.126Z,992.50
2018-02-21T01:33:35.447Z,992.52
2018-02-21T01:34:35.767Z,992.54
2018-02-21T01:35:36.088Z,992.53
2018-02-21T01:36:36.420Z,992.54
2018-02-21T01:37:36.524Z,992.58
2018-02-21T01:38:36.846Z,992.57
2018-02-21T01:39:37.168Z,992.60
2018-02-21T01:40:37.302Z,992.60
2018-02-21T01:41:37.584Z,992.58
2018-02-21T01:42:37.901Z,992.62
2018-02-21T01:43:38.224Z,992.58
2018-02-21T01:44:38.544Z,992.58
2018-02-21T01:45:38.864Z,992.56
2018-02-21T01:46:39.188Z,992.55
2018-02-21T01:47:39.507Z,992.52
2018-02-21T01:48:39.826Z,992.49
2018-02-21T01:49:40.157Z,992.49
2018-02-21T01:50:40.269Z,992.50
2018-02-21T01:51:40.381Z,992.48
2018-02-21T01:52:40.698Z,992.50
2018-02-21T01:53:41.020Z,992.50
2018-02-21T01:54:41.335Z,992.51
2018-02-21T01:55:41.659Z,992.47
2018-02-21T01:56:41.985Z,992.47
2018-02-21T01:57:42.304Z,992.48
2018-02-21T01:58:42.616Z,992.51
2018-02-21T01:59:42.930Z,992.50
2018-02-21T02:00:43.248Z,992.51
2018-02-21T02:01:43.560Z,992.46
2018-02-21T02:02:43.672Z,992.48
2018-02-21T02:03:43.995Z,992.48
2018-02-21T02:04:44.317Z,992.48
2018-02-21T02:05:44.623Z,992.52
2018-02-21T02:06:44.943Z,992.49
2018-02-21T02:07:45.265Z,992.49
2018-02-21T02:08:45.586Z,992.49
2018-02-21T02:09:45.908Z,992.53
2018-02-21T02:10:46.230Z,992.52
2018-02-21T02:11:46.554Z,992.51
2018-02-21T02:12:46.877Z,992.50
2018-02-21T02:13:46.986Z,992.53
2018-02-21T02:14:47.306Z,992.59
2018-02-21T02:15:47.626Z,992.62
2018-02-21T02:16:47.945Z,992.58
2018-02-21T02:17:48.292Z,992.64
2018-02-21T02:18:48.596Z,992.60
2018-02-21T02:19:48.907Z,992.56
2018-02-21T02:20:49.224Z,992.57
2018-02-21T02:21:50.389Z,992.61
2018-02-21T02:22:49.850Z,992.62
2018-02-21T02:23:50.168Z,992.61
2018-02-21T02:24:50.485Z,992.68
2018-02-21T02:25:50.795Z,992.62
2018-02-21T02:26:51.111Z,992.67
2018-02-21T02:27:51.221Z,992.62
2018-02-21T02:28:51.548Z,992.70
2018-02-21T02:29:51.869Z,992.73
2018-02-21T02:30:52.193Z,992.71
2018-02-21T02:31:52.510Z,992.70
2018-02-21T02:32:52.834Z,992.74
2018-02-21T02:33:53.152Z,992.71
2018-02-21T02:34:53.472Z,992.70
2018-02-21T02:35:53.800Z,992.67
2018-02-21T02:36:54.116Z,992.75
2018-02-21T02:37:54.437Z,992.70
2018-02-21T02:38:54.758Z,992.66
2018-02-21T02:39:55.077Z,992.72
2018-02-21T02:40:55.407Z,992.68
2018-02-21T02:41:55.722Z,992.70
2018-02-21T02:42:56.037Z,992.68
2018-02-21T02:43:56.349Z,992.67
2018-02-21T02:44:56.669Z,992.67
2018-02-21T02:45:56.986Z,992.71
2018-02-21T02:46:57.293Z,992.68
2018-02-21T02:47:57.608Z,992.72
2018-02-21T02:48:57.926Z,992.70
2018-02-21T02:49:58.043Z,992.68
2018-02-21T02:50:58.356Z,992.70
2018-02-21T02:51:58.464Z,992.75
2018-02-21T02:52:58.787Z,992.78
2018-02-21T02:53:59.104Z,992.77
2018-02-21T02:54:59.426Z,992.80
2018-02-21T02:55:59.745Z,992.78
2018-02-21T02:57:00.066Z,992.78
2018-02-21T02:58:00.386Z,992.82
2018-02-21T02:59:00.704Z,992.79
2018-02-21T03:00:03.399Z,992.76
2018-02-21T03:01:01.198Z,992.78
2018-02-21T03:02:01.304Z,992.81
2018-02-21T03:03:01.625Z,992.77
2018-02-21T03:04:01.733Z,992.79
2018-02-21T03:05:02.054Z,992.78
2018-02-21T03:06:02.374Z,992.83
2018-02-21T03:07:02.695Z,992.80
2018-02-21T03:08:03.012Z,992.80
2018-02-21T03:09:03.333Z,992.83
2018-02-21T03:10:03.658Z,992.83
2018-02-21T03:11:03.984Z,992.83
2018-02-21T03:12:04.092Z,992.81
2018-02-21T03:13:04.413Z,992.88
2018-02-21T03:14:04.734Z,992.79
2018-02-21T03:15:05.054Z,992.77
2018-02-21T03:16:05.375Z,992.82
2018-02-21T03:17:05.703Z,992.81
2018-02-21T03:18:06.023Z,992.82
2018-02-21T03:19:06.326Z,992.83
2018-02-21T03:20:06.641Z,992.82
2018-02-21T03:21:06.956Z,992.84
2018-02-21T03:22:07.278Z,992.85
2018-02-21T03:23:07.598Z,992.86
2018-02-21T03:24:07.918Z,992.82
2018-02-21T03:25:08.239Z,992.84
2018-02-21T03:26:08.559Z,992.83
2018-02-21T03:27:08.879Z,992.82
2018-02-21T03:28:09.200Z,992.82
2018-02-21T03:29:09.521Z,992.79
2018-02-21T03:30:09.648Z,992.78
2018-02-21T03:31:09.969Z,992.80
2018-02-21T03:32:10.288Z,992.79
2018-02-21T03:33:10.608Z,992.78
2018-02-21T03:34:10.929Z,992.77
2018-02-21T03:35:11.255Z,992.78
2018-02-21T03:36:11.574Z,992.79
2018-02-21T03:37:11.888Z,992.79
2018-02-21T03:38:12.197Z,992.80
2018-02-21T03:39:12.512Z,992.82
2018-02-21T03:40:12.830Z,992.84
2018-02-21T03:41:13.150Z,992.79
2018-02-21T03:42:13.464Z,992.85
2018-02-21T03:43:13.777Z,992.86
2018-02-21T03:44:14.096Z,992.88
2018-02-21T03:45:14.211Z,992.89
2018-02-21T03:46:14.531Z,992.86
2018-02-21T03:47:14.851Z,992.80
2018-02-21T03:48:15.173Z,992.90
2018-02-21T03:49:15.493Z,992.93
2018-02-21T03:50:15.814Z,992.90
2018-02-21T03:51:16.147Z,992.92
2018-02-21T03:52:16.255Z,992.89
2018-02-21T03:53:16.575Z,992.94
2018-02-21T03:54:16.895Z,992.97
2018-02-21T03:55:17.215Z,992.92
2018-02-21T03:56:17.536Z,992.94
2018-02-21T03:57:17.852Z,992.94
2018-02-21T03:58:18.177Z,992.92
2018-02-21T03:59:18.495Z,992.84
2018-02-21T04:00:18.808Z,992.81
2018-02-21T04:01:19.119Z,992.82
2018-02-21T04:02:19.434Z,992.84
2018-02-21T04:03:19.758Z,992.85
2018-02-21T04:04:20.080Z,992.87
2018-02-21T04:05:20.398Z,992.91
2018-02-21T04:06:20.719Z,992.89
2018-02-21T04:07:21.037Z,992.88
2018-02-21T04:08:21.357Z,992.90
2018-02-21T04:09:21.678Z,992.89
2018-02-21T04:10:21.999Z,992.89
2018-02-21T04:11:22.328Z,992.91
2018-02-21T04:12:22.440Z,992.96
2018-02-21T04:13:22.761Z,992.97
2018-02-21T04:14:23.080Z,992.97
2018-02-21T04:15:23.397Z,992.99
2018-02-21T04:16:23.717Z,993.01
2018-02-21T04:17:24.045Z,993.02
2018-02-21T04:18:24.363Z,993.02
2018-02-21T04:19:24.675Z,993.03
2018-02-21T04:20:24.995Z,992.97
2018-02-21T04:21:25.306Z,993.03
2018-02-21T04:22:25.619Z,992.98
2018-02-21T04:23:25.934Z,993.00
2018-02-21T04:24:26.253Z,993.00
2018-02-21T04:25:26.574Z,992.99
2018-02-21T04:26:26.681Z,992.98
2018-02-21T04:27:27.002Z,993.02
2018-02-21T04:28:27.359Z,993.02
2018-02-21T04:29:27.441Z,993.00
2018-02-21T04:30:27.759Z,993.00
2018-02-21T04:31:28.080Z,992.99
2018-02-21T04:32:28.400Z,993.02
2018-02-21T04:33:28.721Z,992.98
2018-02-21T04:34:29.047Z,992.98
2018-02-21T04:35:29.161Z,992.97
2018-02-21T04:36:29.477Z,992.96
2018-02-21T04:37:29.798Z,992.95
2018-02-21T04:38:30.115Z,992.89
2018-02-21T04:39:30.436Z,992.89
2018-02-21T04:40:30.764Z,992.87
2018-02-21T04:41:31.083Z,992.87
2018-02-21T04:42:31.421Z,992.83
2018-02-21T04:43:31.554Z,992.85
2018-02-21T04:44:31.661Z,992.82
2018-02-21T04:45:31.992Z,992.81
2018-02-21T04:46:32.103Z,992.85
2018-02-21T04:47:32.423Z,992.80
2018-02-21T04:48:32.746Z,992.78
2018-02-21T04:49:33.063Z,992.84
2018-02-21T04:50:33.382Z,992.86
2018-02-21T04:51:33.708Z,992.81
2018-02-21T04:52:34.023Z,992.82
2018-02-21T04:53:34.342Z,992.79
2018-02-21T04:54:34.653Z,992.84
2018-02-21T04:55:34.994Z,992.83
2018-02-21T04:56:35.282Z,992.84
2018-02-21T04:57:35.600Z,992.84
2018-02-21T04:58:35.723Z,992.84
2018-02-21T04:59:36.023Z,992.85
2018-02-21T05:00:36.352Z,992.79
2018-02-21T05:01:36.658Z,992.82
2018-02-21T05:02:36.979Z,992.87
2018-02-21T05:03:37.085Z,992.87
2018-02-21T05:04:37.392Z,992.85
2018-02-21T05:05:37.508Z,992.84
2018-02-21T05:06:37.826Z,992.89
2018-02-21T05:07:38.137Z,992.88
2018-02-21T05:08:38.468Z,992.90
2018-02-21T05:09:38.575Z,992.90
2018-02-21T05:10:38.896Z,992.85
2018-02-21T05:11:39.215Z,992.80
2018-02-21T05:12:39.536Z,992.86
2018-02-21T05:13:39.860Z,992.84
2018-02-21T05:14:40.226Z,992.84
2018-02-21T05:15:40.497Z,992.82
2018-02-21T05:16:40.615Z,992.76
2018-02-21T05:17:40.935Z,992.79
2018-02-21T05:18:41.256Z,992.80
2018-02-21T05:19:41.574Z,992.79
2018-02-21T05:20:41.896Z,992.85
2018-02-21T05:21:42.217Z,992.84
2018-02-21T05:22:42.532Z,992.89
2018-02-21T05:23:42.848Z,992.92
2018-02-21T05:24:43.160Z,992.96
2018-02-21T05:25:43.480Z,992.96
2018-02-21T05:26:43.792Z,993.03
2018-02-21T05:27:44.105Z,993.01
2018-02-21T05:28:44.419Z,993.07
2018-02-21T05:29:44.733Z,993.04
2018-02-21T05:30:45.046Z,993.03
2018-02-21T05:31:45.368Z,993.05
2018-02-21T05:32:45.690Z,993.04
2018-02-21T05:33:46.009Z,993.01
2018-02-21T05:34:46.330Z,993.00
2018-02-21T05:35:46.655Z,992.99
2018-02-21T05:36:46.760Z,992.92
2018-02-21T05:37:47.082Z,992.93
2018-02-21T05:38:47.405Z,992.95
2018-02-21T05:39:47.723Z,992.93
2018-02-21T05:40:48.051Z,992.90
2018-02-21T05:41:48.164Z,993.00
2018-02-21T05:42:48.271Z,992.99
2018-02-21T05:43:48.593Z,992.96
2018-02-21T05:44:48.913Z,992.95
2018-02-21T05:45:49.235Z,993.01
2018-02-21T05:46:49.580Z,993.00
2018-02-21T05:47:49.689Z,993.03
2018-02-21T05:48:50.003Z,992.98
2018-02-21T05:49:50.329Z,993.00
2018-02-21T05:50:50.650Z,992.96
2018-02-21T05:51:50.971Z,992.95
2018-02-21T05:52:51.289Z,992.98
2018-02-21T05:53:51.609Z,993.00
2018-02-21T05:54:51.930Z,992.96
2018-02-21T05:55:52.253Z,992.97
2018-02-21T05:56:52.365Z,992.98
2018-02-21T05:57:52.684Z,992.95
2018-02-21T05:58:53.005Z,992.97
2018-02-21T05:59:53.333Z,992.99
2018-02-21T06:00:53.658Z,992.96
2018-02-21T06:01:53.948Z,993.03
2018-02-21T06:02:54.268Z,993.03
2018-02-21T06:03:54.588Z,993.01
2018-02-21T06:04:54.912Z,993.11
2018-02-21T06:05:55.231Z,993.14
2018-02-21T06:06:55.544Z,993.20
2018-02-21T06:07:55.865Z,993.23
2018-02-21T06:08:56.173Z,993.30
2018-02-21T06:09:56.487Z,993.25
2018-02-21T06:10:56.803Z,993.32
2018-02-21T06:11:57.120Z,993.29
2018-02-21T06:12:57.230Z,993.31
2018-02-21T06:13:57.549Z,993.30
2018-02-21T06:14:57.870Z,993.27
2018-02-21T06:15:58.189Z,993.27
2018-02-21T06:16:58.509Z,993.26
2018-02-21T06:17:58.830Z,993.23
2018-02-21T06:18:59.150Z,993.25
2018-02-21T06:19:59.469Z,993.21
2018-02-21T06:20:59.790Z,993.20
2018-02-21T06:22:00.118Z,993.18
2018-02-21T06:23:00.239Z,993.17
2018-02-21T06:24:00.549Z,993.20
2018-02-21T06:25:00.901Z,993.22
2018-02-21T06:26:01.190Z,993.22
2018-02-21T06:27:01.516Z,993.27
2018-02-21T06:28:01.839Z,993.29
2018-02-21T06:29:02.152Z,993.26
2018-02-21T06:30:02.466Z,993.29
2018-02-21T06:31:02.780Z,993.32
2018-02-21T06:32:03.093Z,993.26
2018-02-21T06:33:03.413Z,993.22
2018-02-21T06:34:03.733Z,993.20
2018-02-21T06:35:03.838Z,993.19
2018-02-21T06:36:04.164Z,993.15
2018-02-21T06:37:04.271Z,993.10
2018-02-21T06:38:04.591Z,993.13
2018-02-21T06:39:04.911Z,993.10
2018-02-21T06:40:05.231Z,993.14
2018-02-21T06:41:05.551Z,993.11
2018-02-21T06:42:05.872Z,993.18
2018-02-21T06:43:06.212Z,993.15
2018-02-21T06:44:06.491Z,993.19
2018-02-21T06:45:06.812Z,993.23
2018-02-21T06:46:07.132Z,993.25
2018-02-21T06:47:07.452Z,993.19
2018-02-21T06:48:07.780Z,993.24
2018-02-21T06:49:07.951Z,993.27
2018-02-21T06:50:08.005Z,993.23
2018-02-21T06:51:08.324Z,993.28
2018-02-21T06:52:08.646Z,993.29
2018-02-21T06:53:08.961Z,993.28
2018-02-21T06:54:09.476Z,993.26
2018-02-21T06:55:09.587Z,993.30
2018-02-21T06:56:09.907Z,993.28
2018-02-21T06:57:10.228Z,993.30
2018-02-21T06:58:10.604Z,993.34
2018-02-21T06:59:10.864Z,993.32
2018-02-21T07:00:11.226Z,993.38
2018-02-21T07:01:11.498Z,993.40
2018-02-21T07:02:11.815Z,993.44
2018-02-21T07:03:12.137Z,993.50
2018-02-21T07:04:12.445Z,993.51
2018-02-21T07:05:12.761Z,993.57
2018-02-21T07:06:13.084Z,993.51
2018-02-21T07:07:13.194Z,993.54
2018-02-21T07:08:13.514Z,993.55
2018-02-21T07:09:13.834Z,993.50
2018-02-21T07:10:14.154Z,993.49
2018-02-21T07:11:14.511Z,993.48
2018-02-21T07:12:14.787Z,993.45
2018-02-21T07:13:15.109Z,993.46
2018-02-21T07:14:15.429Z,993.49
2018-02-21T07:15:15.755Z,993.49
2018-02-21T07:16:15.866Z,993.52
2018-02-21T07:17:16.186Z,993.55
2018-02-21T07:18:16.506Z,993.50
2018-02-21T07:19:16.827Z,993.53
2018-02-21T07:20:17.147Z,993.55
2018-02-21T07:21:17.494Z,993.59
2018-02-21T07:22:17.812Z,993.58
2018-02-21T07:23:17.927Z,993.58
2018-02-21T07:24:18.028Z,993.62
2018-02-21T07:25:18.348Z,993.63
2018-02-21T07:26:18.718Z,993.65
2018-02-21T07:27:18.993Z,993.58
2018-02-21T07:28:19.334Z,993.60
2018-02-21T07:29:19.623Z,993.60
2018-02-21T07:30:19.943Z,993.64
2018-02-21T07:31:20.272Z,993.56
2018-02-21T07:32:20.391Z,993.57
2018-02-21T07:33:20.496Z,993.60
2018-02-21T07:34:20.817Z,993.56
2018-02-21T07:35:21.137Z,993.63
2018-02-21T07:36:21.457Z,993.66
2018-02-21T07:37:21.784Z,993.70
2018-02-21T07:38:22.099Z,993.77
2018-02-21T07:39:22.416Z,993.77
2018-02-21T07:40:22.731Z,993.83
2018-02-21T07:41:23.043Z,993.88
2018-02-21T07:42:23.366Z,993.94
2018-02-21T07:43:23.687Z,993.95
2018-02-21T07:44:24.016Z,994.00
2018-02-21T07:45:24.327Z,993.99
2018-02-21T07:46:24.647Z,994.04
2018-02-21T07:47:24.964Z,993.98
2018-02-21T07:48:25.286Z,994.00
2018-02-21T07:49:25.608Z,994.03
2018-02-21T07:50:25.928Z,994.03
2018-02-21T07:51:26.255Z,993.98
2018-02-21T07:52:26.407Z,994.06
2018-02-21T07:53:26.498Z,994.04
2018-02-21T07:54:26.823Z,994.05
2018-02-21T07:55:27.145Z,994.10
2018-02-21T07:56:27.456Z,994.09
2018-02-21T07:57:27.781Z,994.11
2018-02-21T07:58:28.102Z,994.02
2018-02-21T07:59:28.431Z,994.07
2018-02-21T08:00:29.062Z,994.11
2018-02-21T08:01:29.208Z,994.10
2018-02-21T08:02:29.389Z,994.08
2018-02-21T08:03:29.706Z,994.16
2018-02-21T08:04:30.033Z,994.13
2018-02-21T08:05:30.148Z,994.14
2018-02-21T08:06:30.259Z,994.18
2018-02-21T08:07:30.581Z,994.21
2018-02-21T08:08:30.899Z,994.23
2018-02-21T08:09:31.220Z,994.30
2018-02-21T08:10:31.547Z,994.27
2018-02-21T08:11:31.860Z,994.27
2018-02-21T08:12:32.174Z,994.30
2018-02-21T08:13:32.492Z,994.29
2018-02-21T08:14:32.813Z,994.32
2018-02-21T08:15:33.118Z,994.34
2018-02-21T08:16:33.437Z,994.33
2018-02-21T08:17:33.551Z,994.33
2018-02-21T08:18:33.866Z,994.34
2018-02-21T08:19:34.178Z,994.37
2018-02-21T08:20:34.499Z,994.36
2018-02-21T08:21:34.820Z,994.35
2018-02-21T08:22:35.141Z,994.36
2018-02-21T08:23:35.462Z,994.38
2018-02-21T08:24:35.784Z,994.39
2018-02-21T08:25:36.125Z,994.38
2018-02-21T08:26:36.243Z,994.39
2018-02-21T08:27:36.351Z,994.36
2018-02-21T08:28:36.673Z,994.37
2018-02-21T08:29:36.993Z,994.41
2018-02-21T08:30:37.319Z,994.51
2018-02-21T08:31:37.636Z,994.48
2018-02-21T08:32:37.950Z,994.48
2018-02-21T08:33:38.272Z,994.52
2018-02-21T08:34:38.610Z,994.48
2018-02-21T08:35:38.901Z,994.48
2018-02-21T08:36:39.259Z,994.52
2018-02-21T08:37:39.537Z,994.46
2018-02-21T08:38:39.863Z,994.51
2018-02-21T08:39:39.970Z,994.47
2018-02-21T08:40:40.300Z,994.49
2018-02-21T08:41:40.611Z,994.46
2018-02-21T08:42:40.930Z,994.46
2018-02-21T08:43:41.253Z,994.41
2018-02-21T08:44:41.581Z,994.36
2018-02-21T08:45:41.692Z,994.43
2018-02-21T08:46:42.014Z,994.42
2018-02-21T08:47:42.334Z,994.38
2018-02-21T08:48:42.655Z,994.44
2018-02-21T08:49:42.983Z,994.43
2018-02-21T08:50:43.304Z,994.44
2018-02-21T08:51:43.616Z,994.46
2018-02-21T08:52:43.935Z,994.49
2018-02-21T08:53:44.243Z,994.41
2018-02-21T08:54:44.565Z,994.42
2018-02-21T08:55:44.889Z,994.43
2018-02-21T08:56:44.999Z,994.45
2018-02-21T08:57:45.320Z,994.48
2018-02-21T08:58:45.646Z,994.45
2018-02-21T08:59:45.963Z,994.45
2018-02-21T09:00:46.284Z,994.45
2018-02-21T09:01:46.607Z,994.45
2018-02-21T09:02:46.935Z,994.44
2018-02-21T09:03:47.045Z,994.42
2018-02-21T09:04:47.368Z,994.39
2018-02-21T09:05:47.687Z,994.45
2018-02-21T09:06:48.010Z,994.43
2018-02-21T09:07:48.343Z,994.43
2018-02-21T09:08:48.658Z,994.42
2018-02-21T09:09:48.969Z,994.41
2018-02-21T09:10:49.286Z,994.39
2018-02-21T09:11:49.601Z,994.37
2018-02-21T09:12:49.927Z,994.42
2018-02-21T09:13:50.247Z,994.39
2018-02-21T09:14:50.567Z,994.39
2018-02-21T09:15:50.888Z,994.37
2018-02-21T09:16:51.211Z,994.34
2018-02-21T09:17:51.532Z,994.35
2018-02-21T09:18:51.860Z,994.35
2018-02-21T09:19:51.972Z,994.32
2018-02-21T09:20:52.296Z,994.26
2018-02-21T09:21:52.665Z,994.33
2018-02-21T09:22:52.937Z,994.32
2018-02-21T09:23:53.265Z,994.26
2018-02-21T09:24:53.588Z,994.32
2018-02-21T09:25:53.892Z,994.36
2018-02-21T09:26:54.208Z,994.39
2018-02-21T09:27:54.532Z,994.37
2018-02-21T09:28:54.642Z,994.39
2018-02-21T09:29:54.964Z,994.34
2018-02-21T09:30:55.285Z,994.31
2018-02-21T09:31:55.607Z,994.29
2018-02-21T09:32:55.931Z,994.29
2018-02-21T09:33:56.252Z,994.22
2018-02-21T09:34:56.582Z,994.24
2018-02-21T09:35:56.690Z,994.23
2018-02-21T09:36:56.822Z,994.21
2018-02-21T09:37:57.125Z,994.22
2018-02-21T09:38:57.447Z,994.18
2018-02-21T09:39:57.769Z,994.16
2018-02-21T09:40:58.092Z,994.19
2018-02-21T09:41:58.408Z,994.19
2018-02-21T09:42:58.726Z,994.24
2018-02-21T09:43:59.050Z,994.23
2018-02-21T09:44:59.371Z,994.28
2018-02-21T09:45:59.704Z,994.27
2018-02-21T09:47:00.010Z,994.31
2018-02-21T09:48:00.326Z,994.30
2018-02-21T09:49:00.650Z,994.24
2018-02-21T09:50:00.947Z,994.26
2018-02-21T09:51:01.270Z,994.29
2018-02-21T09:52:01.583Z,994.25
2018-02-21T09:53:01.909Z,994.25
2018-02-21T09:54:02.019Z,994.19
2018-02-21T09:55:02.339Z,994.18
2018-02-21T09:56:02.668Z,994.21
2018-02-21T09:57:02.781Z,994.20
2018-02-21T09:58:03.107Z,994.24
2018-02-21T09:59:03.464Z,994.18
2018-02-21T10:00:07.567Z,994.18
2018-02-21T10:01:03.974Z,994.19
2018-02-21T10:02:04.089Z,994.16
2018-02-21T10:03:04.399Z,994.17
2018-02-21T10:04:04.726Z,994.14
2018-02-21T10:05:05.050Z,994.11
2018-02-21T10:06:05.371Z,994.09
2018-02-21T10:07:05.693Z,994.11
2018-02-21T10:08:06.019Z,994.12
2018-02-21T10:09:06.129Z,994.09
2018-02-21T10:10:06.520Z,994.05
2018-02-21T10:11:06.633Z,994.03
2018-02-21T10:12:06.742Z,993.94
2018-02-21T10:13:07.066Z,994.07
2018-02-21T10:14:07.390Z,994.05
2018-02-21T10:15:07.747Z,994.04
2018-02-21T10:16:07.835Z,994.09
2018-02-21T10:17:08.156Z,994.12
2018-02-21T10:18:08.478Z,994.09
2018-02-21T10:19:08.801Z,994.19
2018-02-21T10:20:09.135Z,994.17
2018-02-21T10:21:09.447Z,994.19
2018-02-21T10:22:09.781Z,994.20
2018-02-21T10:23:10.074Z,994.19
2018-02-21T10:24:10.397Z,994.15
2018-02-21T10:25:10.718Z,994.12
2018-02-21T10:26:11.041Z,994.10
2018-02-21T10:27:11.365Z,994.10
2018-02-21T10:28:11.688Z,994.07
2018-02-21T10:29:12.027Z,994.12
2018-02-21T10:30:12.138Z,994.10
2018-02-21T10:31:12.463Z,994.12
2018-02-21T10:32:12.783Z,994.19
2018-02-21T10:33:13.110Z,994.13
2018-02-21T10:34:13.427Z,994.06
2018-02-21T10:35:13.741Z,994.10
2018-02-21T10:36:14.066Z,994.09
2018-02-21T10:37:14.168Z,994.02
2018-02-21T10:38:14.497Z,994.03
2018-02-21T10:39:14.608Z,994.08
2018-02-21T10:40:14.931Z,994.06
2018-02-21T10:41:15.269Z,994.05
2018-02-21T10:42:15.406Z,994.06
2018-02-21T10:43:15.706Z,994.04
2018-02-21T10:44:16.029Z,994.04
2018-02-21T10:45:16.374Z,994.05
2018-02-21T10:46:16.483Z,994.09
2018-02-21T10:47:16.597Z,994.07
2018-02-21T10:48:16.921Z,994.01
2018-02-21T10:49:17.236Z,994.03
2018-02-21T10:50:17.360Z,994.00
2018-02-21T10:51:17.680Z,993.98
2018-02-21T10:52:18.006Z,993.98
2018-02-21T10:53:18.339Z,993.93
2018-02-21T10:54:18.452Z,993.93
2018-02-21T10:55:18.768Z,994.01
2018-02-21T10:56:19.088Z,994.04
2018-02-21T10:57:19.412Z,994.01
2018-02-21T10:58:19.769Z,994.01
2018-02-21T10:59:20.057Z,994.02
2018-02-21T11:00:20.374Z,994.04
2018-02-21T11:01:20.682Z,993.99
2018-02-21T11:02:20.997Z,994.00
2018-02-21T11:03:21.344Z,994.02
2018-02-21T11:04:21.457Z,993.98
2018-02-21T11:05:21.778Z,993.93
2018-02-21T11:06:22.100Z,993.93
2018-02-21T11:07:22.431Z,993.94
2018-02-21T11:08:22.541Z,994.01
2018-02-21T11:09:22.861Z,993.98
2018-02-21T11:10:23.186Z,993.96
2018-02-21T11:11:23.508Z,994.01
2018-02-21T11:12:23.832Z,993.97
2018-02-21T11:13:24.193Z,993.95
2018-02-21T11:14:24.488Z,993.99
2018-02-21T11:15:24.779Z,993.98
2018-02-21T11:16:25.107Z,993.94
2018-02-21T11:17:25.430Z,993.83
2018-02-21T11:18:25.752Z,993.93
2018-02-21T11:19:26.075Z,993.97
2018-02-21T11:20:26.401Z,993.93
2018-02-21T11:21:26.731Z,993.86
2018-02-21T11:22:26.843Z,993.90
2018-02-21T11:23:27.205Z,993.91
2018-02-21T11:24:27.504Z,993.91
2018-02-21T11:25:27.818Z,993.91
2018-02-21T11:26:28.136Z,993.89
2018-02-21T11:27:28.459Z,993.87
2018-02-21T11:28:28.783Z,993.90
2018-02-21T11:29:29.107Z,993.90
2018-02-21T11:30:29.430Z,993.90
2018-02-21T11:31:29.754Z,993.83
2018-02-21T11:32:30.086Z,993.85
2018-02-21T11:33:30.194Z,993.80
2018-02-21T11:34:30.522Z,993.81
2018-02-21T11:35:30.841Z,993.87
2018-02-21T11:36:31.177Z,993.84
2018-02-21T11:37:31.490Z,993.83
2018-02-21T11:38:31.804Z,993.87
2018-02-21T11:39:32.136Z,993.80
2018-02-21T11:40:32.455Z,993.82
2018-02-21T11:41:32.781Z,993.79
2018-02-21T11:42:33.102Z,993.78
2018-02-21T11:43:33.426Z,993.82
2018-02-21T11:44:33.753Z,993.80
2018-02-21T11:45:33.909Z,993.82
2018-02-21T11:48:05.472Z,993.77
2018-02-21T11:49:05.806Z,993.78
2018-02-21T11:50:05.909Z,993.82
2018-02-21T11:51:06.227Z,993.79
2018-02-21T11:52:06.337Z,993.75
2018-02-21T11:53:06.660Z,993.78
2018-02-21T11:54:06.984Z,993.76
2018-02-21T11:55:07.317Z,993.79
2018-02-21T11:56:07.427Z,993.78
2018-02-21T11:57:07.751Z,993.80
2018-02-21T11:58:08.074Z,993.78
2018-02-21T11:59:08.398Z,993.75
2018-02-21T12:00:08.712Z,993.70
2018-02-21T12:01:09.034Z,993.68
2018-02-21T12:02:09.354Z,993.66
2018-02-21T12:03:09.669Z,993.63
2018-02-21T12:04:37.610Z,993.57
2018-02-21T12:05:10.445Z,993.56
2018-02-21T12:06:10.580Z,993.62
2018-02-21T12:07:17.713Z,993.62
2018-02-21T12:08:10.944Z,993.55
2018-02-21T12:09:32.212Z,993.64
2018-02-21T12:10:11.486Z,993.65
2018-02-21T12:11:11.834Z,993.62
2018-02-21T12:12:11.944Z,993.60
2018-02-21T12:13:12.268Z,993.58
2018-02-21T12:14:12.598Z,993.58
2018-02-21T12:15:12.918Z,993.56
2018-02-21T12:16:13.230Z,993.60
2018-02-21T12:17:13.562Z,993.58
2018-02-21T12:18:13.878Z,993.62
2018-02-21T12:22:18.521Z,993.58
2018-02-21T12:23:18.643Z,993.60
2018-02-21T12:24:18.940Z,993.63
2018-02-21T12:25:19.362Z,993.65
2018-02-21T12:26:19.583Z,993.63
2018-02-21T12:27:19.893Z,993.70
2018-02-21T12:28:20.238Z,993.72
2018-02-21T12:29:20.340Z,993.65
2018-02-21T12:30:20.673Z,993.61
2018-02-21T12:31:20.956Z,993.63
2018-02-21T12:32:21.268Z,993.63
2018-02-21T12:33:21.674Z,993.62
2018-02-21T12:34:21.768Z,993.65
2018-02-21T12:35:22.078Z,993.65
2018-02-21T12:36:36.599Z,993.66